Time;durP1;ratioP1;P1;durP2;ratioP2;P2;SDS_P1;SDS_P2;PMS_P1;PMS_P2;Temp;Humidity;BMP_temperature;BMP_pressure;BME280_temperature;BME280_humidity;BME280_pressure;Samples;Min_cycle;Max_cycle;Signal;HPM_P1;HPM_P2
2021/07/30 00:02:04;;;;;;;0.10;0.10;;;;;;;18.87;86.94;98664.72;4922963;29;20051;-76
2021/07/30 00:04:29;;;;;;;0.10;0.10;;;;;;;18.86;87.28;98668.50;4924977;29;20601;-76
2021/07/30 00:06:55;;;;;;;0.10;0.10;;;;;;;18.80;87.36;98669.41;4912719;29;20064;-77
2021/07/30 00:09:21;;;;;;;0.10;0.10;;;;;;;18.79;87.18;98673.19;4911995;29;20139;-80
2021/07/30 00:11:47;;;;;;;0.10;0.10;;;;;;;18.76;87.23;98668.22;4913874;29;20052;-78
2021/07/30 00:14:13;;;;;;;0.10;0.10;;;;;;;18.68;87.65;98671.19;4912936;29;20091;-79
2021/07/30 00:16:39;;;;;;;0.10;0.10;;;;;;;18.63;87.98;98668.31;4918558;29;20063;-78
2021/07/30 00:19:05;;;;;;;0.10;0.10;;;;;;;18.62;87.63;98667.47;4884363;29;20139;-78
2021/07/30 00:21:31;;;;;;;0.10;0.10;;;;;;;18.64;88.08;98665.34;4899795;29;20130;-77
2021/07/30 00:23:57;;;;;;;0.10;0.10;;;;;;;18.62;87.68;98669.38;4895244;29;20139;-77
2021/07/30 00:26:23;;;;;;;0.10;0.10;;;;;;;18.55;88.30;98659.34;4879107;29;20124;-78
2021/07/30 00:28:49;;;;;;;0.10;0.10;;;;;;;18.59;88.14;98662.47;4913333;29;20051;-76
2021/07/30 00:31:15;;;;;;;0.10;0.10;;;;;;;18.59;88.03;98667.09;4891437;29;20103;-78
2021/07/30 00:33:41;;;;;;;0.10;0.10;;;;;;;18.58;87.89;98659.97;4895658;29;20048;-75
2021/07/30 00:36:07;;;;;;;0.10;0.10;;;;;;;18.58;88.13;98654.47;4908005;29;20052;-77
2021/07/30 00:38:32;;;;;;;0.10;0.10;;;;;;;18.51;87.94;98660.03;4918405;29;20044;-75
2021/07/30 00:41:00;;;;;;;0.10;0.10;;;;;;;18.55;88.32;98661.25;4892922;29;20048;-76
2021/07/30 00:43:26;;;;;;;0.10;0.10;;;;;;;18.55;88.08;98667.53;4892798;29;20571;-78
2021/07/30 00:45:53;;;;;;;0.13;0.13;;;;;;;18.50;88.20;98659.19;4914523;29;20071;-77
2021/07/30 00:48:20;;;;;;;0.10;0.10;;;;;;;18.53;88.37;98664.19;4899317;29;20130;-76
2021/07/30 00:50:46;;;;;;;0.10;0.10;;;;;;;18.53;88.42;98664.19;4918887;29;20511;-74
2021/07/30 00:53:13;;;;;;;0.10;0.10;;;;;;;18.54;88.51;98657.66;4883779;29;20058;-77
2021/07/30 00:55:40;;;;;;;0.10;0.10;;;;;;;18.53;88.57;98661.44;4907867;29;20059;-76
2021/07/30 00:58:06;;;;;;;0.10;0.10;;;;;;;18.58;88.50;98657.22;4912567;29;20059;-75
2021/07/30 01:00:32;;;;;;;0.10;0.10;;;;;;;18.61;88.20;98654.00;4905408;29;20199;-75
2021/07/30 01:03:00;;;;;;;0.10;0.10;;;;;;;18.53;88.52;98653.25;4885505;29;20525;-75
2021/07/30 01:05:28;;;;;;;0.10;0.10;;;;;;;18.48;88.55;98655.84;4898863;29;20121;-75
2021/07/30 01:07:54;;;;;;;0.10;0.10;;;;;;;18.45;88.69;98650.81;4903788;29;20059;-76
2021/07/30 01:10:19;;;;;;;0.10;0.10;;;;;;;18.46;88.73;98657.13;4926232;29;20464;-77
2021/07/30 01:12:46;;;;;;;0.10;0.10;;;;;;;18.48;88.73;98650.34;4902696;29;20059;-75
2021/07/30 01:15:12;;;;;;;0.10;0.10;;;;;;;18.51;89.03;98649.91;4888767;29;20051;-75
2021/07/30 01:17:38;;;;;;;0.10;0.10;;;;;;;18.54;88.94;98649.47;4900702;29;20052;-76
2021/07/30 01:20:04;;;;;;;0.10;0.10;;;;;;;18.55;88.53;98644.81;4895893;29;20053;-75
2021/07/30 01:22:31;;;;;;;0.10;0.10;;;;;;;18.55;88.47;98648.38;4874463;29;20067;-76
2021/07/30 01:24:57;;;;;;;0.10;0.10;;;;;;;18.59;88.82;98653.41;4915295;29;20056;-76
2021/07/30 01:27:23;;;;;;;0.10;0.10;;;;;;;18.63;88.48;98652.72;4905715;29;20063;-74
2021/07/30 01:29:49;;;;;;;0.15;0.15;;;;;;;18.69;87.92;98656.47;4916834;29;20048;-76
2021/07/30 01:32:16;;;;;;;0.10;0.10;;;;;;;18.70;87.82;98658.13;4901734;29;20534;-75
2021/07/30 01:34:44;;;;;;;0.10;0.10;;;;;;;18.64;88.26;98648.06;4914349;29;20052;-76
2021/07/30 01:37:11;;;;;;;0.10;0.10;;;;;;;18.62;88.31;98650.22;4903710;29;20052;-76
2021/07/30 01:39:37;;;;;;;0.10;0.10;;;;;;;18.60;88.13;98647.69;4882736;29;20544;-77
2021/07/30 01:42:04;;;;;;;0.10;0.10;;;;;;;18.59;88.24;98653.41;4909641;29;20143;-76
2021/07/30 01:44:30;;;;;;;0.10;0.10;;;;;;;18.58;88.20;98655.31;4921195;29;20048;-75
2021/07/30 01:46:56;;;;;;;0.10;0.10;;;;;;;18.50;88.60;98656.47;4898860;29;20548;-76
2021/07/30 01:49:21;;;;;;;0.10;0.10;;;;;;;18.46;89.12;98651.63;4898787;29;20052;-76
2021/07/30 01:51:47;;;;;;;0.10;0.10;;;;;;;18.48;88.83;98649.53;4915028;29;20067;-75
2021/07/30 01:54:16;;;;;;;0.10;0.10;;;;;;;18.48;88.45;98650.34;4897953;29;20048;-76
2021/07/30 01:56:42;;;;;;;0.10;0.10;;;;;;;18.50;88.36;98648.25;4874544;29;20604;-75
2021/07/30 01:59:09;;;;;;;0.10;0.10;;;;;;;18.49;88.54;98646.53;4913333;29;20048;-75
2021/07/30 02:01:35;;;;;;;0.10;0.10;;;;;;;18.45;88.50;98652.72;4913936;29;20052;-75
2021/07/30 02:04:00;;;;;;;0.10;0.10;;;;;;;18.49;88.62;98660.22;4894521;29;20187;-77
2021/07/30 02:06:26;;;;;;;0.10;0.10;;;;;;;18.52;88.34;98645.28;4912522;29;20422;-76
2021/07/30 02:08:52;;;;;;;0.10;0.10;;;;;;;18.52;88.46;98659.78;4899999;29;20624;-78
2021/07/30 02:11:18;;;;;;;0.10;0.10;;;;;;;18.53;88.23;98653.25;4914484;29;20063;-76
2021/07/30 02:16:28;;;;;;;0.10;0.10;;;;;;;18.65;87.60;98650.59;4923436;29;20089;-76
2021/07/30 02:18:53;;;;;;;0.10;0.10;;;;;;;18.68;87.79;98649.28;4918113;29;20056;-76
2021/07/30 02:21:20;;;;;;;0.10;0.10;;;;;;;18.71;87.25;98646.13;4907399;29;20052;-78
2021/07/30 02:23:46;;;;;;;0.17;0.17;;;;;;;18.71;87.69;98651.59;4903554;29;20047;-76
2021/07/30 02:26:12;;;;;;;0.10;0.10;;;;;;;18.70;87.38;98656.22;4886337;29;20059;-76
2021/07/30 02:28:38;;;;;;;0.10;0.10;;;;;;;18.74;87.06;98648.41;4862820;29;20423;-75
2021/07/30 02:31:04;;;;;;;0.10;0.10;;;;;;;18.70;87.10;98655.38;4886073;29;20060;-76
2021/07/30 02:33:30;;;;;;;0.10;0.10;;;;;;;18.68;87.26;98657.50;4903103;29;20051;-76
2021/07/30 02:35:55;;;;;;;0.13;0.13;;;;;;;18.71;87.29;98659.81;4912364;29;20513;-74
2021/07/30 02:38:21;;;;;;;0.10;0.10;;;;;;;18.70;87.39;98655.38;4899533;29;20554;-76
2021/07/30 02:40:47;;;;;;;0.10;0.10;;;;;;;18.72;86.82;98656.00;4917339;29;20056;-76
2021/07/30 02:43:12;;;;;;;0.10;0.10;;;;;;;18.72;86.81;98656.00;4896812;29;20059;-77
2021/07/30 02:45:41;;;;;;;0.10;0.10;;;;;;;18.71;87.30;98654.34;4896842;29;20368;-76
2021/07/30 02:48:07;;;;;;;0.20;0.20;;;;;;;18.75;86.93;98655.56;4895936;29;20051;-77
2021/07/30 02:50:33;;;;;;;0.20;0.20;;;;;;;18.87;86.41;98653.75;4922430;29;20136;-76
2021/07/30 02:52:59;;;;;;;0.10;0.10;;;;;;;18.86;86.18;98649.31;4921084;29;20299;-77
2021/07/30 02:55:25;;;;;;;0.20;0.20;;;;;;;18.87;86.02;98650.19;4920805;29;20606;-77
2021/07/30 02:57:52;;;;;;;0.15;0.15;;;;;;;18.91;86.06;98652.22;4903950;29;20074;-76
2021/07/30 03:00:17;;;;;;;0.20;0.20;;;;;;;18.94;85.61;98654.50;4918914;29;20528;-76
2021/07/30 03:02:43;;;;;;;0.10;0.10;;;;;;;19.01;85.78;98654.41;4903249;29;20060;-77
2021/07/30 03:05:09;;;;;;;0.25;0.20;;;;;;;19.09;85.04;98650.53;4901767;29;20047;-76
2021/07/30 03:07:35;;;;;;;0.20;0.20;;;;;;;19.11;84.93;98649.22;4897083;29;20112;-74
2021/07/30 03:10:01;;;;;;;0.10;0.10;;;;;;;19.24;84.65;98648.22;4912327;29;20541;-76
2021/07/30 03:12:28;;;;;;;0.13;0.13;;;;;;;19.42;83.92;98639.94;4896383;29;20055;-77
2021/07/30 03:14:53;;;;;;;0.20;0.20;;;;;;;19.55;83.05;98646.28;4914105;29;20107;-75
2021/07/30 03:17:19;;;;;;;0.20;0.20;;;;;;;19.61;82.90;98648.94;4898167;29;20056;-77
2021/07/30 03:19:45;;;;;;;0.20;0.20;;;;;;;19.77;82.34;98641.97;4899588;29;20156;-78
2021/07/30 03:22:11;;;;;;;0.20;0.20;;;;;;;19.89;82.31;98651.06;4921831;29;20344;-77
2021/07/30 03:24:37;;;;;;;0.20;0.20;;;;;;;20.01;81.67;98650.25;4894100;29;20045;-78
2021/07/30 03:27:05;;;;;;;0.10;0.10;;;;;;;20.07;81.39;98646.53;4873841;29;20079;-81
2021/07/30 03:29:31;;;;;;;0.20;0.20;;;;;;;20.16;80.79;98653.34;4904294;29;20105;-78
2021/07/30 03:31:56;;;;;;;0.10;0.10;;;;;;;20.20;80.71;98651.78;4922488;29;20541;-77
2021/07/30 03:34:22;;;;;;;0.10;0.10;;;;;;;20.23;80.14;98645.84;4912434;29;20055;-77
2021/07/30 03:36:48;;;;;;;0.20;0.20;;;;;;;20.33;80.21;98645.22;4906183;29;20106;-78
2021/07/30 03:39:14;;;;;;;0.15;0.15;;;;;;;20.34;79.96;98645.00;4897013;29;20548;-76
2021/07/30 03:41:39;;;;;;;0.10;0.10;;;;;;;20.42;79.43;98646.53;4915269;29;20083;-76
2021/07/30 03:44:05;;;;;;;0.17;0.17;;;;;;;20.48;79.24;98649.16;4902104;29;20066;-78
2021/07/30 03:46:31;;;;;;;0.10;0.10;;;;;;;20.68;78.76;98654.28;4919299;29;20043;-78
2021/07/30 03:48:57;;;;;;;0.20;0.20;;;;;;;20.78;78.46;98641.88;4917038;29;20050;-79
2021/07/30 03:51:23;;;;;;;0.20;0.20;;;;;;;20.85;78.20;98650.81;4920438;29;20056;-78
2021/07/30 03:53:52;;;;;;;0.20;0.20;;;;;;;20.84;78.18;98663.72;4913895;29;20161;-79
2021/07/30 03:56:17;;;;;;;0.20;0.20;;;;;;;20.91;78.10;98663.56;4918338;29;20357;-76
2021/07/30 03:58:45;;;;;;;0.20;0.20;;;;;;;20.88;78.00;98664.91;4898638;29;20180;-76
2021/07/30 04:01:11;;;;;;;0.10;0.10;;;;;;;20.74;78.27;98669.00;4912479;29;20056;-77
2021/07/30 04:03:38;;;;;;;0.10;0.10;;;;;;;20.67;78.36;98673.78;4903604;29;20581;-79
2021/07/30 04:06:04;;;;;;;0.20;0.20;;;;;;;20.65;78.67;98670.41;4916975;29;20063;-78
2021/07/30 04:08:32;;;;;;;0.20;0.20;;;;;;;20.62;78.90;98679.13;4878851;29;20052;-78
2021/07/30 04:10:59;;;;;;;0.17;0.17;;;;;;;20.72;78.76;98682.13;4919755;29;20052;-76
2021/07/30 04:13:25;;;;;;;0.20;0.20;;;;;;;20.63;78.88;98673.41;4896172;29;20040;-77
2021/07/30 04:15:51;;;;;;;0.20;0.20;;;;;;;20.66;79.00;98669.38;4901135;29;20067;-79
2021/07/30 04:18:17;;;;;;;0.20;0.20;;;;;;;20.63;79.08;98672.59;4894998;29;20052;-79
2021/07/30 04:20:43;;;;;;;0.20;0.20;;;;;;;20.70;78.93;98676.03;4913661;29;20067;-78
2021/07/30 04:23:09;;;;;;;0.20;0.20;;;;;;;20.80;78.44;98679.00;4880267;29;20669;-77
2021/07/30 04:25:40;;;;;;;0.20;0.20;;;;;;;20.75;78.67;98678.91;4897021;29;20052;-77
2021/07/30 04:28:05;;;;;;;0.20;0.20;;;;;;;20.72;78.83;98679.38;4919129;29;20055;-78
2021/07/30 04:30:31;;;;;;;0.20;0.20;;;;;;;20.68;78.90;98672.69;4923457;29;20047;-79
2021/07/30 04:32:57;;;;;;;0.10;0.10;;;;;;;20.79;78.35;98669.09;4894336;29;20051;-78
2021/07/30 04:35:23;;;;;;;0.17;0.17;;;;;;;20.84;78.21;98669.22;4902510;29;20528;-79
2021/07/30 04:37:49;;;;;;;0.10;0.10;;;;;;;20.90;78.26;98673.72;4878646;29;20064;-79
2021/07/30 04:40:15;;;;;;;0.20;0.20;;;;;;;20.93;78.29;98677.91;4916465;29;20048;-81
2021/07/30 04:42:41;;;;;;;0.20;0.20;;;;;;;20.93;78.37;98666.91;4919420;29;20059;-79
2021/07/30 04:45:07;;;;;;;0.10;0.10;;;;;;;21.03;78.37;98666.31;4896871;29;20048;-79
2021/07/30 04:47:33;;;;;;;0.20;0.20;;;;;;;21.11;78.12;98665.91;4900657;29;20083;-78
2021/07/30 04:49:59;;;;;;;0.10;0.10;;;;;;;21.16;77.93;98666.00;4865252;29;20435;-77
2021/07/30 04:52:25;;;;;;;0.13;0.13;;;;;;;21.27;77.35;98665.13;4915425;29;20060;-80
2021/07/30 04:54:51;;;;;;;0.10;0.10;;;;;;;21.40;77.06;98659.38;4920891;29;20048;-79
2021/07/30 04:57:17;;;;;;;0.10;0.10;;;;;;;21.41;77.05;98661.03;4887577;29;20071;-79
2021/07/30 04:59:43;;;;;;;0.20;0.20;;;;;;;21.43;76.96;98661.63;4879239;29;20063;-79
2021/07/30 05:02:09;;;;;;;0.20;0.20;;;;;;;21.49;76.96;98661.72;4896172;29;20079;-79
2021/07/30 05:04:36;;;;;;;0.10;0.10;;;;;;;21.57;76.50;98658.56;4921846;29;20040;-80
2021/07/30 05:07:03;;;;;;;0.10;0.10;;;;;;;21.61;76.38;98654.25;4901156;29;20044;-80
2021/07/30 05:09:29;;;;;;;0.10;0.10;;;;;;;21.64;76.36;98651.00;4894846;29;20071;-77
2021/07/30 05:11:55;;;;;;;0.17;0.17;;;;;;;21.58;76.49;98663.84;4903600;29;20134;-77
2021/07/30 05:14:21;;;;;;;0.10;0.10;;;;;;;21.42;77.24;98659.94;4911058;29;20104;-80
2021/07/30 05:16:47;;;;;;;0.10;0.10;;;;;;;21.31;77.62;98674.56;4897997;29;20063;-77
2021/07/30 05:19:13;;;;;;;0.10;0.10;;;;;;;21.19;78.51;98671.84;4908475;29;20059;-79
2021/07/30 05:21:39;;;;;;;0.10;0.10;;;;;;;21.17;78.92;98685.03;4912411;29;20055;-78
2021/07/30 05:24:05;;;;;;;0.10;0.10;;;;;;;21.16;79.19;98679.75;4919195;29;20058;-81
2021/07/30 05:26:31;;;;;;;0.10;0.10;;;;;;;21.39;78.69;98676.09;4903654;29;20185;-79
2021/07/30 05:28:58;;;;;;;0.13;0.13;;;;;;;21.49;78.12;98675.47;4903982;29;20148;-81
2021/07/30 05:31:24;;;;;;;0.20;0.20;;;;;;;21.51;77.08;98667.81;4863027;29;20488;-80
2021/07/30 05:33:50;;;;;;;0.10;0.10;;;;;;;21.48;76.72;98679.31;4891809;29;20056;-79
2021/07/30 05:36:18;;;;;;;0.10;0.10;;;;;;;21.51;76.39;98678.81;4922814;29;20426;-79
2021/07/30 05:38:44;;;;;;;0.10;0.10;;;;;;;21.39;76.50;98676.97;4911109;29;20143;-78
2021/07/30 05:41:10;;;;;;;0.10;0.10;;;;;;;21.35;76.81;98681.28;4891474;29;20088;-77
2021/07/30 05:43:38;;;;;;;0.10;0.10;;;;;;;21.41;77.32;98669.28;4911198;29;20044;-82
2021/07/30 05:46:08;;;;;;;0.10;0.10;;;;;;;21.33;77.34;98672.44;4879002;29;20135;-79
2021/07/30 05:48:34;;;;;;;0.10;0.10;;;;;;;21.55;77.55;98677.25;4894039;29;20533;-80
2021/07/30 05:51:10;;;;;;;0.10;0.10;;;;;;;21.56;76.89;98677.00;4911054;29;20099;-81
2021/07/30 05:58:23;;;;;;;0.10;0.10;;;;;;;21.41;78.17;98688.53;4909396;29;20551;-79
2021/07/30 06:00:49;;;;;;;0.10;0.10;;;;;;;21.35;78.44;98691.44;4914450;29;20063;-77
2021/07/30 06:06:17;;;;;;;0.10;0.10;;;;;;;21.35;79.75;98703.28;4888951;29;20071;-79
2021/07/30 06:08:46;;;;;;;0.10;0.10;;;;;;;21.32;79.27;98698.25;4887886;29;20253;-80
2021/07/30 06:11:12;;;;;;;0.10;0.10;;;;;;;21.28;79.15;98697.06;4899537;29;20052;-79
2021/07/30 06:13:38;;;;;;;0.10;0.10;;;;;;;21.21;79.61;98696.38;4899405;29;20331;-80
2021/07/30 06:16:08;;;;;;;0.10;0.10;;;;;;;21.18;80.11;98699.59;4890411;29;20520;-79
2021/07/30 06:18:34;;;;;;;0.20;0.20;;;;;;;21.27;80.13;98700.88;4896188;29;20086;-80
2021/07/30 06:21:00;;;;;;;0.20;0.20;;;;;;;21.41;79.33;98702.28;4899156;29;20171;-80
2021/07/30 06:23:26;;;;;;;0.10;0.10;;;;;;;21.39;80.02;98698.97;4884891;29;20041;-80
2021/07/30 06:25:52;;;;;;;0.10;0.10;;;;;;;21.61;79.02;98690.00;4875495;29;20049;-80
2021/07/30 06:28:18;;;;;;;0.10;0.10;;;;;;;21.70;78.26;98693.22;4903324;29;20040;-82
2021/07/30 06:30:44;;;;;;;0.17;0.17;;;;;;;21.66;78.50;98687.34;4888900;29;20467;-81
2021/07/30 06:33:11;;;;;;;0.10;0.10;;;;;;;21.72;77.81;98689.13;4876588;29;20053;-82
2021/07/30 06:35:37;;;;;;;0.10;0.10;;;;;;;21.78;77.98;98685.38;4908307;29;20082;-80
2021/07/30 06:38:04;;;;;;;0.10;0.10;;;;;;;21.73;77.37;98693.53;4903602;29;20103;-81
2021/07/30 06:40:30;;;;;;;0.10;0.10;;;;;;;21.76;76.87;98686.72;4883194;29;20056;-81
2021/07/30 06:42:57;;;;;;;0.10;0.10;;;;;;;21.68;76.64;98685.19;4876712;29;20052;-79
2021/07/30 06:45:24;;;;;;;0.10;0.10;;;;;;;21.66;77.01;98682.69;4894167;29;20136;-80
2021/07/30 06:47:49;;;;;;;0.10;0.10;;;;;;;21.67;77.01;98683.50;4872108;29;20437;-80
2021/07/30 06:50:15;;;;;;;0.10;0.10;;;;;;;21.65;76.59;98696.69;4902864;29;20076;-80
2021/07/30 06:52:41;;;;;;;0.10;0.10;;;;;;;21.59;76.42;98697.69;4900647;29;20045;-77
2021/07/30 06:55:07;;;;;;;0.20;0.20;;;;;;;21.56;76.69;98698.16;4885864;29;20529;-81
2021/07/30 06:57:33;;;;;;;0.10;0.10;;;;;;;21.47;76.76;98685.91;4904174;29;20065;-81
2021/07/30 06:59:59;;;;;;;0.10;0.10;;;;;;;21.52;77.04;98680.50;4903522;29;20486;-82
2021/07/30 07:02:25;;;;;;;0.10;0.10;;;;;;;21.65;77.79;98685.69;4873638;29;20096;-79
2021/07/30 07:04:51;;;;;;;0.10;0.10;;;;;;;21.57;77.81;98684.19;4884097;29;20103;-78
2021/07/30 07:07:17;;;;;;;0.10;0.10;;;;;;;21.58;77.03;98679.50;4887494;29;20143;-78
2021/07/30 07:09:43;;;;;;;0.10;0.10;;;;;;;21.57;77.47;98675.06;4866919;29;20052;-79
2021/07/30 07:12:08;;;;;;;0.10;0.10;;;;;;;21.55;77.71;98680.84;4905581;29;20048;-79
2021/07/30 07:14:34;;;;;;;0.10;0.10;;;;;;;21.57;77.39;98686.06;4871690;29;20052;-80
2021/07/30 07:17:00;;;;;;;0.10;0.10;;;;;;;21.63;76.75;98682.34;4893237;29;20052;-80
2021/07/30 07:19:27;;;;;;;0.10;0.10;;;;;;;21.68;75.31;98685.19;4879545;29;20063;-79
2021/07/30 07:21:54;;;;;;;0.10;0.10;;;;;;;21.61;76.06;98679.00;4888544;29;20119;-81
2021/07/30 07:24:20;;;;;;;0.10;0.10;;;;;;;21.67;75.03;98683.50;4903077;29;20059;-77
2021/07/30 07:26:46;;;;;;;0.17;0.10;;;;;;;21.62;74.76;98681.50;4897303;29;20144;-79
2021/07/30 07:29:12;;;;;;;0.10;0.10;;;;;;;21.58;75.88;98685.00;4883941;29;20049;-80
2021/07/30 07:31:38;;;;;;;0.10;0.10;;;;;;;21.65;75.19;98686.53;4902884;29;20054;-77
2021/07/30 07:34:04;;;;;;;0.10;0.10;;;;;;;21.69;76.39;98686.88;4884413;29;20040;-82
2021/07/30 07:36:30;;;;;;;0.10;0.10;;;;;;;21.66;76.41;98692.88;4869265;29;20044;-80
2021/07/30 07:38:56;;;;;;;0.10;0.10;;;;;;;21.68;76.61;98696.19;4891753;29;20147;-81
2021/07/30 07:41:25;;;;;;;0.10;0.10;;;;;;;21.72;76.79;98697.38;4855580;29;20119;-80
2021/07/30 07:43:50;;;;;;;0.10;0.10;;;;;;;21.74;76.61;98692.47;4887698;29;20057;-79
2021/07/30 07:46:16;;;;;;;0.10;0.10;;;;;;;21.74;76.71;98692.47;4898738;29;20048;-80
2021/07/30 07:48:43;;;;;;;0.10;0.10;;;;;;;21.69;76.46;98680.53;4887474;29;20491;-80
2021/07/30 07:51:09;;;;;;;0.10;0.10;;;;;;;21.76;76.26;98686.72;4899878;29;20131;-80
2021/07/30 07:53:35;;;;;;;0.15;0.15;;;;;;;21.85;76.03;98690.72;4907313;29;20064;-81
2021/07/30 07:56:06;;;;;;;0.10;0.10;;;;;;;21.94;75.43;98688.38;4874520;29;20103;-80
2021/07/30 07:58:33;;;;;;;0.20;0.20;;;;;;;22.02;76.95;98694.34;4880812;29;20922;-79
2021/07/30 08:00:59;;;;;;;0.20;0.20;;;;;;;22.09;76.56;98689.50;4892717;29;20139;-79
2021/07/30 08:03:25;;;;;;;0.20;0.20;;;;;;;22.20;74.28;98690.53;4884388;29;20044;-79
2021/07/30 08:05:52;;;;;;;0.17;0.17;;;;;;;22.30;73.95;98687.94;4882913;29;20052;-79
2021/07/30 08:08:18;;;;;;;0.10;0.10;;;;;;;22.55;73.28;98689.41;4894151;29;20430;-82
2021/07/30 08:10:44;;;;;;;0.20;0.20;;;;;;;22.76;72.53;98685.88;4878075;29;20056;-77
2021/07/30 08:13:10;;;;;;;0.20;0.20;;;;;;;22.92;72.37;98684.19;4853131;29;20107;-79
2021/07/30 08:15:39;;;;;;;0.20;0.20;;;;;;;23.15;70.38;98688.63;4867547;29;20055;-79
2021/07/30 08:18:05;;;;;;;0.20;0.20;;;;;;;23.41;69.53;98683.41;4870533;29;20483;-79
2021/07/30 08:20:30;;;;;;;0.20;0.20;;;;;;;23.74;68.38;98683.25;4893280;29;20139;-80
2021/07/30 08:22:57;;;;;;;0.30;0.30;;;;;;;24.28;66.40;98687.88;4889082;29;20056;-79
2021/07/30 08:25:23;;;;;;;0.43;0.43;;;;;;;25.03;63.99;98691.41;4899477;29;20232;-78
2021/07/30 08:27:49;;;;;;;0.30;0.30;;;;;;;25.52;61.98;98693.84;4888822;29;20052;-81
2021/07/30 08:30:15;;;;;;;0.30;0.30;;;;;;;25.83;61.15;98688.41;4892724;29;20128;-78
2021/07/30 08:32:41;;;;;;;0.20;0.20;;;;;;;25.79;60.83;98693.69;4895509;29;20199;-77
2021/07/30 08:35:07;;;;;;;0.20;0.20;;;;;;;25.62;61.60;98691.09;4855051;29;20562;-80
2021/07/30 08:37:34;;;;;;;0.10;0.10;;;;;;;25.21;62.94;98688.22;4890277;29;20138;-80
2021/07/30 08:40:03;;;;;;;0.10;0.10;;;;;;;24.96;63.65;98688.06;4864347;29;20076;-81
2021/07/30 08:42:37;;;;;;;0.10;0.10;;;;;;;24.85;63.16;98689.94;4897944;29;20048;-80
2021/07/30 08:45:04;;;;;;;0.10;0.10;;;;;;;24.63;63.37;98681.78;4855563;29;20539;-77
2021/07/30 08:47:31;;;;;;;0.10;0.10;;;;;;;24.35;63.75;98679.34;4898103;29;20530;-81
2021/07/30 08:50:01;;;;;;;0.10;0.10;;;;;;;24.21;63.96;98679.81;4858092;29;20132;-81
2021/07/30 08:52:45;;;;;;;0.10;0.10;;;;;;;24.23;64.93;98677.59;4882280;29;20040;-81
2021/07/30 08:55:12;;;;;;;0.10;0.10;;;;;;;24.12;63.83;98678.63;4842022;29;20048;-80
2021/07/30 08:57:42;;;;;;;0.10;0.10;;;;;;;24.00;63.89;98684.31;4888014;29;20509;-81
2021/07/30 09:00:11;;;;;;;0.10;0.10;;;;;;;23.88;64.50;98680.03;4878024;29;20047;-81
2021/07/30 09:02:37;;;;;;;0.10;0.10;;;;;;;23.85;64.94;98673.16;4873783;29;20048;-79
2021/07/30 09:05:27;;;;;;;0.10;0.10;;;;;;;23.76;64.82;98678.28;4854454;29;20048;-79
2021/07/30 09:07:54;;;;;;;0.10;0.10;;;;;;;23.76;65.00;98677.47;4889786;29;20063;-80
2021/07/30 09:10:41;;;;;;;0.10;0.10;;;;;;;23.65;66.01;98687.53;4915010;29;20056;-81
2021/07/30 09:13:27;;;;;;;0.10;0.10;;;;;;;23.68;65.61;98687.03;4887355;29;20384;-81
2021/07/30 09:16:02;;;;;;;0.10;0.10;;;;;;;23.76;65.18;98683.81;4899658;29;20147;-81
2021/07/30 09:18:36;;;;;;;0.10;0.10;;;;;;;23.85;65.53;98688.88;4902403;29;20048;-82
2021/07/30 09:21:28;;;;;;;0.17;0.17;;;;;;;24.05;64.71;98691.81;4898266;29;20063;-80
2021/07/30 09:24:24;;;;;;;0.20;0.20;;;;;;;24.13;64.67;98694.09;4900655;29;20072;-80
2021/07/30 09:26:59;;;;;;;0.10;0.10;;;;;;;24.21;64.23;98679.81;4892862;29;20052;-81
2021/07/30 09:29:27;;;;;;;0.10;0.10;;;;;;;24.04;65.26;98690.16;4903986;29;20074;-82
2021/07/30 09:32:55;;;;;;;0.10;0.10;;;;;;;23.26;68.43;98695.94;4891863;29;20048;-82
2021/07/30 09:35:24;;;;;;;0.20;0.20;;;;;;;23.16;69.08;98701.31;4903123;29;20097;-81
2021/07/30 09:38:17;;;;;;;0.20;0.20;;;;;;;23.29;69.11;98691.81;4913743;29;20052;-79
2021/07/30 09:40:44;;;;;;;0.20;0.20;;;;;;;23.67;67.97;98690.91;4888121;29;20120;-80
2021/07/30 09:43:25;;;;;;;0.20;0.20;;;;;;;23.89;66.89;98684.50;4910403;29;20052;-79
2021/07/30 09:46:15;;;;;;;0.30;0.30;;;;;;;24.50;65.24;98682.28;4894506;29;20063;-79
2021/07/30 09:48:52;;;;;;;0.30;0.30;;;;;;;24.99;63.38;98682.00;4896192;29;20051;-79
2021/07/30 09:51:19;;;;;;;0.20;0.20;;;;;;;25.45;61.75;98683.06;4920527;29;20058;-80
2021/07/30 09:53:50;;;;;;;0.20;0.20;;;;;;;25.69;61.44;98677.00;4892910;29;20135;-79
2021/07/30 09:56:17;;;;;;;0.20;0.20;;;;;;;25.07;62.18;98675.13;4854240;29;20047;-80
2021/07/30 09:58:46;;;;;;;0.20;0.20;;;;;;;25.14;61.46;98671.03;4898591;29;20075;-80
2021/07/30 10:01:18;;;;;;;0.20;0.20;;;;;;;25.24;61.54;98668.31;4885342;29;20490;-80
2021/07/30 10:03:46;;;;;;;0.20;0.20;;;;;;;24.96;62.00;98669.53;4914706;29;20107;-80
2021/07/30 10:06:14;;;;;;;0.20;0.20;;;;;;;24.97;62.48;98651.00;4905295;29;20060;-81
2021/07/30 10:08:41;;;;;;;0.20;0.20;;;;;;;24.87;61.87;98649.03;4891732;29;20404;-81
2021/07/30 10:11:12;;;;;;;0.22;0.20;;;;;;;25.44;60.71;98650.09;4902646;29;20151;-82
2021/07/30 10:13:49;;;;;;;0.20;0.20;;;;;;;25.77;59.68;98645.16;4906332;29;20104;-81
2021/07/30 10:16:20;;;;;;;0.20;0.20;;;;;;;25.86;59.18;98638.03;4894418;29;20053;-78
2021/07/30 10:18:47;;;;;;;0.20;0.20;;;;;;;26.02;58.71;98630.53;4904566;29;20059;-79
2021/07/30 10:21:15;;;;;;;0.20;0.20;;;;;;;25.99;56.97;98626.38;4909652;29;20064;-79
2021/07/30 10:23:44;;;;;;;0.20;0.20;;;;;;;26.16;57.12;98621.41;4923486;29;20048;-81
2021/07/30 10:26:11;;;;;;;0.20;0.20;;;;;;;26.38;55.95;98626.63;4889105;29;20076;-80
2021/07/30 10:28:37;;;;;;;0.20;0.20;;;;;;;26.45;55.60;98623.56;4908330;29;20055;-81
2021/07/30 10:31:06;;;;;;;0.20;0.20;;;;;;;26.47;55.58;98621.38;4887766;29;20052;-81
2021/07/30 10:33:34;;;;;;;0.20;0.20;;;;;;;26.61;55.19;98618.84;4896343;29;20126;-80
2021/07/30 10:36:03;;;;;;;0.20;0.20;;;;;;;26.74;54.87;98614.66;4872362;29;20053;-81
2021/07/30 10:38:29;;;;;;;0.20;0.20;;;;;;;27.05;54.35;98610.63;4918387;29;20067;-79
2021/07/30 10:40:58;;;;;;;0.20;0.20;;;;;;;27.14;54.40;98600.66;4904267;29;20148;-78
2021/07/30 10:43:27;;;;;;;0.30;0.30;;;;;;;27.34;53.91;98607.19;4922921;29;20078;-80
2021/07/30 10:46:12;;;;;;;0.20;0.20;;;;;;;27.38;53.24;98597.16;4919629;29;20174;-83
2021/07/30 10:48:39;;;;;;;0.20;0.20;;;;;;;27.49;54.00;98601.53;4920618;29;20478;-81
2021/07/30 10:51:27;;;;;;;0.20;0.20;;;;;;;27.48;54.47;98602.66;4921425;29;20147;-79
2021/07/30 10:54:02;;;;;;;0.20;0.20;;;;;;;27.34;54.01;98591.38;4925186;29;20052;-80
2021/07/30 10:56:31;;;;;;;0.20;0.20;;;;;;;27.45;53.67;98592.13;4918238;29;20055;-80
2021/07/30 10:59:00;;;;;;;0.20;0.20;;;;;;;27.73;52.81;98589.72;4893118;29;20147;-81
2021/07/30 11:01:29;;;;;;;0.30;0.30;;;;;;;27.81;52.21;98583.56;4905548;29;20048;-80
2021/07/30 11:04:15;;;;;;;0.20;0.20;;;;;;;27.98;52.08;98585.94;4893054;29;20053;-80
2021/07/30 11:06:41;;;;;;;0.40;0.40;;;;;;;28.37;50.40;98580.25;4902653;29;20071;-82
2021/07/30 11:09:17;;;;;;;0.30;0.30;;;;;;;28.91;49.04;98595.81;4907655;29;20094;-79
2021/07/30 11:11:58;;;;;;;0.30;0.30;;;;;;;29.11;48.33;98577.22;4918534;29;20062;-80
2021/07/30 11:14:29;;;;;;;0.30;0.30;;;;;;;29.43;47.62;98574.50;4851300;29;20143;-81
2021/07/30 11:16:59;;;;;;;0.60;0.60;;;;;;;29.87;46.50;98576.06;4908570;29;20193;-79
2021/07/30 11:19:30;;;;;;;0.90;0.90;;;;;;;29.95;45.80;98577.38;4912838;29;20148;-80
2021/07/30 11:21:57;;;;;;;0.50;0.50;;;;;;;30.22;45.65;98571.06;4905377;29;20055;-78
2021/07/30 11:24:24;;;;;;;1.20;1.20;;;;;;;31.90;41.72;98575.84;4900367;29;20057;-81
2021/07/30 11:26:50;;;;;;;0.80;0.80;;;;;;;32.60;39.65;98573.47;4886433;29;20060;-82
2021/07/30 11:29:19;;;;;;;0.25;0.25;;;;;;;32.35;40.29;98561.81;4903493;29;20103;-82
2021/07/30 11:32:01;;;;;;;0.20;0.20;;;;;;;31.54;42.38;98561.06;4874154;29;20562;-79
2021/07/30 11:34:29;;;;;;;0.20;0.20;;;;;;;31.48;42.23;98559.53;4917943;29;20139;-81
2021/07/30 11:37:01;;;;;;;0.10;0.10;;;;;;;30.61;43.85;98555.81;4872398;29;20067;-79
2021/07/30 11:39:53;;;;;;;0.20;0.20;;;;;;;30.82;43.58;98548.69;4899706;29;20056;-79
2021/07/30 11:42:30;;;;;;;0.20;0.20;;;;;;;30.23;45.83;98542.03;4915519;29;20048;-84
2021/07/30 11:45:00;;;;;;;0.20;0.20;;;;;;;29.04;47.78;98545.03;4898754;29;20055;-80
2021/07/30 11:47:31;;;;;;;0.20;0.20;;;;;;;28.46;49.16;98544.34;4905530;29;20106;-78
2021/07/30 11:50:03;;;;;;;0.20;0.20;;;;;;;28.06;49.79;98541.66;4906804;29;20130;-79